createdAt,value
2018-05-14T00:00:29.657Z,94.40
2018-05-14T00:02:55.875Z,94.30
2018-05-14T00:05:22.090Z,94.20
2018-05-14T00:07:48.451Z,94.30
2018-05-14T00:10:15.475Z,94.40
2018-05-14T00:12:41.731Z,94.20
2018-05-14T00:15:08.000Z,94.20
2018-05-14T00:17:34.233Z,94.20
2018-05-14T00:20:00.468Z,94.40
2018-05-14T00:22:26.708Z,94.80
2018-05-14T00:24:52.960Z,94.50
2018-05-14T00:27:19.208Z,94.50
2018-05-14T00:29:46.188Z,94.70
2018-05-14T00:32:12.440Z,94.70
2018-05-14T00:34:38.749Z,94.50
2018-05-14T00:37:04.965Z,94.60
2018-05-14T00:39:31.197Z,94.70
2018-05-14T00:41:57.433Z,94.40
2018-05-14T00:44:23.684Z,94.40
2018-05-14T00:46:49.940Z,94.70
2018-05-14T00:49:16.920Z,94.50
2018-05-14T00:51:43.250Z,94.40
2018-05-14T00:54:09.459Z,94.70
2018-05-14T00:56:36.445Z,94.40
2018-05-14T00:59:02.691Z,94.30
2018-05-14T01:01:28.924Z,94.40
2018-05-14T01:03:55.327Z,94.60
2018-05-14T01:06:21.545Z,94.80
2018-05-14T01:08:47.760Z,94.60
2018-05-14T01:11:14.716Z,94.90
2018-05-14T01:13:40.965Z,94.80
2018-05-14T01:16:07.186Z,94.80
2018-05-14T01:18:33.484Z,94.70
2018-05-14T01:20:59.796Z,94.70
2018-05-14T01:23:27.040Z,94.80
2018-05-14T01:25:53.231Z,94.70
2018-05-14T01:28:19.461Z,94.70
2018-05-14T01:30:45.760Z,95.00
2018-05-14T01:33:12.048Z,94.60
2018-05-14T01:35:39.008Z,94.80
2018-05-14T01:38:05.983Z,95.00
2018-05-14T01:40:32.244Z,94.80
2018-05-14T01:42:58.551Z,94.80
2018-05-14T01:45:24.826Z,95.00
2018-05-14T01:47:51.801Z,95.00
2018-05-14T01:50:18.772Z,94.80
2018-05-14T01:52:45.014Z,94.80
2018-05-14T01:55:11.230Z,94.80
2018-05-14T01:57:37.523Z,94.80
2018-05-14T02:00:04.558Z,94.80
2018-05-14T02:02:31.532Z,94.90
2018-05-14T02:04:57.812Z,94.90
2018-05-14T02:07:24.055Z,94.80
2018-05-14T02:09:50.291Z,94.90
2018-05-14T02:12:16.508Z,94.70
2018-05-14T02:14:42.786Z,95.20
2018-05-14T02:17:09.036Z,94.90
2018-05-14T02:19:35.343Z,94.80
2018-05-14T02:22:01.552Z,94.90
2018-05-14T02:24:28.552Z,94.90
2018-05-14T02:26:54.761Z,94.90
2018-05-14T02:29:20.998Z,94.70
2018-05-14T02:31:47.404Z,94.60
2018-05-14T02:34:13.638Z,94.80
2018-05-14T02:36:39.874Z,94.70
2018-05-14T02:39:06.173Z,94.80
2018-05-14T02:41:32.432Z,94.90
2018-05-14T02:43:58.640Z,94.80
2018-05-14T02:46:24.870Z,95.10
2018-05-14T02:48:51.421Z,94.90
2018-05-14T02:51:17.652Z,95.20
2018-05-14T02:53:43.870Z,95.10
2018-05-14T02:56:10.144Z,95.10
2018-05-14T02:58:37.103Z,95.30
2018-05-14T03:01:04.149Z,95.20
2018-05-14T03:03:30.368Z,95.20
2018-05-14T03:05:56.576Z,95.20
2018-05-14T03:08:22.807Z,95.00
2018-05-14T03:10:49.052Z,95.40
2018-05-14T03:13:16.183Z,95.20
2018-05-14T03:15:43.089Z,95.20
2018-05-14T03:18:09.287Z,95.10
2018-05-14T03:20:36.271Z,94.90
2018-05-14T03:23:02.521Z,94.80
2018-05-14T03:25:28.757Z,95.10
2018-05-14T03:27:55.000Z,95.20
2018-05-14T03:30:21.951Z,95.10
2018-05-14T03:32:48.940Z,95.20
2018-05-14T03:35:15.231Z,95.20
2018-05-14T03:37:42.273Z,95.20
2018-05-14T03:40:09.216Z,95.10
2018-05-14T03:42:35.429Z,95.00
2018-05-14T03:45:01.640Z,95.10
2018-05-14T03:47:27.867Z,95.10
2018-05-14T03:49:54.110Z,95.30
2018-05-14T03:52:20.551Z,95.10
2018-05-14T03:54:46.780Z,95.20
2018-05-14T03:57:12.989Z,95.20
2018-05-14T03:59:51.500Z,95.00
2018-05-14T04:02:30.128Z,95.00
2018-05-14T04:05:07.526Z,95.00
2018-05-14T04:07:33.742Z,95.20
2018-05-14T04:10:00.808Z,95.20
2018-05-14T04:12:27.049Z,95.20
2018-05-14T04:14:54.554Z,95.20
2018-05-14T04:17:20.804Z,95.30
2018-05-14T04:19:47.025Z,95.20
2018-05-14T04:22:13.247Z,95.30
2018-05-14T04:24:39.464Z,95.50
2018-05-14T04:27:05.702Z,95.50
2018-05-14T04:29:32.046Z,95.40
2018-05-14T04:31:58.378Z,95.40
2018-05-14T04:34:24.667Z,95.40
2018-05-14T04:36:50.896Z,95.40
2018-05-14T04:39:17.101Z,95.30
2018-05-14T04:41:44.087Z,95.20
2018-05-14T04:44:10.345Z,95.20
2018-05-14T04:46:36.666Z,95.60
2018-05-14T04:49:02.997Z,95.50
2018-05-14T04:51:29.220Z,95.40
2018-05-14T04:53:55.545Z,95.20
2018-05-14T04:56:21.824Z,95.20
2018-05-14T04:58:48.033Z,95.20
2018-05-14T05:01:14.979Z,95.10
2018-05-14T05:03:42.055Z,95.20
2018-05-14T05:06:08.313Z,95.10
2018-05-14T05:08:34.612Z,94.80
2018-05-14T05:11:00.841Z,94.90
2018-05-14T05:13:27.078Z,94.80
2018-05-14T05:15:53.440Z,94.80
2018-05-14T05:18:19.650Z,94.70
2018-05-14T05:20:45.879Z,95.20
2018-05-14T05:23:12.113Z,95.10
2018-05-14T05:25:38.668Z,95.10
2018-05-14T05:28:05.005Z,95.20
2018-05-14T05:30:31.282Z,94.90
2018-05-14T05:32:57.578Z,94.80
2018-05-14T05:35:24.558Z,95.00
2018-05-14T05:37:50.862Z,95.00
2018-05-14T05:40:17.025Z,95.10
2018-05-14T05:42:43.287Z,95.30
2018-05-14T05:45:09.626Z,95.20
2018-05-14T05:47:35.894Z,95.40
2018-05-14T05:50:02.156Z,95.30
2018-05-14T05:52:28.755Z,95.30
2018-05-14T05:54:55.023Z,94.90
2018-05-14T05:57:21.284Z,94.90
2018-05-14T05:59:47.508Z,94.90
2018-05-14T06:02:13.792Z,94.90
2018-05-14T06:04:40.025Z,95.00
2018-05-14T06:07:06.245Z,95.10
2018-05-14T06:09:32.547Z,94.80
2018-05-14T06:11:59.464Z,94.40
2018-05-14T06:14:26.404Z,94.40
2018-05-14T06:16:52.632Z,94.30
2018-05-14T06:19:18.928Z,94.50
2018-05-14T06:21:45.165Z,94.70
2018-05-14T06:24:11.400Z,94.30
2018-05-14T06:26:37.707Z,94.40
2018-05-14T06:29:03.915Z,94.30
2018-05-14T06:31:30.145Z,94.40
2018-05-14T06:33:56.408Z,94.40
2018-05-14T06:36:22.633Z,94.30
2018-05-14T06:38:49.080Z,94.20
2018-05-14T06:41:15.375Z,94.10
2018-05-14T06:43:41.631Z,94.10
2018-05-14T06:46:07.858Z,94.20
2018-05-14T06:48:34.073Z,94.10
2018-05-14T06:51:00.297Z,94.10
2018-05-14T06:53:26.529Z,93.90
2018-05-14T06:55:52.792Z,93.70
2018-05-14T06:58:22.135Z,94.00
2018-05-14T07:00:48.611Z,93.70
2018-05-14T07:03:14.913Z,93.90
2018-05-14T07:05:41.168Z,93.60
2018-05-14T07:08:07.405Z,93.70
2018-05-14T07:10:34.449Z,93.10
2018-05-14T07:13:00.653Z,93.10
2018-05-14T07:15:26.922Z,93.20
2018-05-14T07:17:53.261Z,93.20
2018-05-14T07:20:20.231Z,93.50
2018-05-14T07:22:46.526Z,93.50
2018-05-14T07:25:13.500Z,92.90
2018-05-14T07:27:39.730Z,92.90
2018-05-14T07:30:05.954Z,92.50
2018-05-14T07:32:32.193Z,92.70
2018-05-14T07:34:58.515Z,92.30
2018-05-14T07:37:24.789Z,92.40
2018-05-14T07:39:51.028Z,92.40
2018-05-14T07:42:18.015Z,92.30
2018-05-14T07:44:44.236Z,91.60
2018-05-14T07:47:10.453Z,90.20
2018-05-14T07:49:37.435Z,84.40
2018-05-14T07:52:03.743Z,84.30
2018-05-14T07:54:30.099Z,84.20
2018-05-14T07:56:57.021Z,82.20
2018-05-14T07:59:23.269Z,82.00
2018-05-14T08:01:49.491Z,79.30
2018-05-14T08:04:15.838Z,80.50
2018-05-14T08:06:42.831Z,82.10
2018-05-14T08:09:09.054Z,81.90
2018-05-14T08:11:36.168Z,83.60
2018-05-14T08:14:02.914Z,83.60
2018-05-14T08:16:29.903Z,82.80
2018-05-14T08:18:56.150Z,82.60
2018-05-14T08:21:22.501Z,80.50
2018-05-14T08:23:48.844Z,77.70
2018-05-14T08:26:15.074Z,75.10
2018-05-14T08:28:41.369Z,75.30
2018-05-14T08:31:07.625Z,76.70
2018-05-14T08:33:33.937Z,75.20
2018-05-14T08:36:00.199Z,76.00
2018-05-14T08:38:26.424Z,75.90
2018-05-14T08:40:52.649Z,76.30
2018-05-14T08:43:18.953Z,78.60
2018-05-14T08:45:45.416Z,77.80
2018-05-14T08:48:12.424Z,78.40
2018-05-14T08:50:38.707Z,78.10
2018-05-14T08:53:04.968Z,77.30
2018-05-14T08:55:31.231Z,76.00
2018-05-14T08:57:57.460Z,73.60
2018-05-14T09:00:23.726Z,70.90
2018-05-14T09:02:51.007Z,66.80
2018-05-14T09:05:17.247Z,65.30
2018-05-14T09:07:43.476Z,65.60
2018-05-14T09:10:09.730Z,65.50
2018-05-14T09:12:35.970Z,65.80
2018-05-14T09:15:02.228Z,63.00
2018-05-14T09:17:29.239Z,63.30
2018-05-14T09:19:55.452Z,63.30
2018-05-14T09:22:22.596Z,62.60
2018-05-14T09:24:48.943Z,62.50
2018-05-14T09:27:15.187Z,59.00
2018-05-14T09:29:42.179Z,56.60
2018-05-14T09:32:08.396Z,56.60
2018-05-14T09:34:34.600Z,55.80
2018-05-14T09:37:01.563Z,54.30
2018-05-14T09:39:27.806Z,54.20
2018-05-14T09:41:54.019Z,54.10
2018-05-14T09:44:20.312Z,54.20
2018-05-14T09:46:47.295Z,52.80
2018-05-14T09:49:13.550Z,52.60
2018-05-14T09:51:39.754Z,51.90
2018-05-14T09:54:05.978Z,52.20
2018-05-14T09:56:32.245Z,51.40
2018-05-14T09:58:58.485Z,49.10
2018-05-14T10:01:25.537Z,48.20
2018-05-14T10:03:51.805Z,48.80
2018-05-14T10:06:18.100Z,49.40
2018-05-14T10:08:44.314Z,48.40
2018-05-14T10:11:10.596Z,47.40
2018-05-14T10:13:36.787Z,47.90
2018-05-14T10:16:03.781Z,48.50
2018-05-14T10:18:30.005Z,48.50
2018-05-14T10:20:56.280Z,48.90
2018-05-14T10:23:22.515Z,47.10
2018-05-14T10:25:48.776Z,46.50
2018-05-14T10:28:15.228Z,48.10
2018-05-14T10:30:41.444Z,47.90
2018-05-14T10:33:07.717Z,49.50
2018-05-14T10:35:33.967Z,49.90
2018-05-14T10:38:00.192Z,50.20
2018-05-14T10:40:26.425Z,51.20
2018-05-14T10:42:54.477Z,53.50
2018-05-14T10:45:20.826Z,53.00
2018-05-14T10:47:48.117Z,49.30
2018-05-14T10:50:14.380Z,49.30
2018-05-14T10:52:40.645Z,50.40
2018-05-14T10:55:06.995Z,51.20
2018-05-14T10:57:33.438Z,52.40
2018-05-14T10:59:59.725Z,51.80
2018-05-14T11:02:25.934Z,52.60
2018-05-14T11:04:52.165Z,49.70
2018-05-14T11:07:18.424Z,50.60
2018-05-14T11:09:44.671Z,49.50
2018-05-14T11:12:10.909Z,48.90
2018-05-14T11:14:37.173Z,52.70
2018-05-14T11:17:03.421Z,53.30
2018-05-14T11:19:29.960Z,52.60
2018-05-14T11:21:56.249Z,52.50
2018-05-14T11:24:22.453Z,50.80
2018-05-14T11:26:48.688Z,53.00
2018-05-14T11:29:14.884Z,53.00
2018-05-14T11:31:41.902Z,51.60
2018-05-14T11:34:08.225Z,51.50
2018-05-14T11:36:34.520Z,52.00
2018-05-14T11:39:00.937Z,49.80
2018-05-14T11:41:27.933Z,51.50
2018-05-14T11:43:54.176Z,51.50
2018-05-14T11:46:20.390Z,51.60
2018-05-14T11:48:47.349Z,50.20
2018-05-14T11:51:13.560Z,50.20
2018-05-14T11:53:39.820Z,50.40
2018-05-14T11:56:06.641Z,50.10
2018-05-14T11:58:32.871Z,49.40
2018-05-14T12:01:00.596Z,50.00
2018-05-14T12:03:26.828Z,49.40
2018-05-14T12:05:53.063Z,49.40
2018-05-14T12:08:19.413Z,50.40
2018-05-14T12:10:46.443Z,47.40
2018-05-14T12:13:12.717Z,47.40
2018-05-14T12:15:39.761Z,48.70
2018-05-14T12:18:06.706Z,49.30
2018-05-14T12:20:33.664Z,47.10
2018-05-14T12:22:59.896Z,47.00
2018-05-14T12:25:26.123Z,47.40
2018-05-14T12:27:52.347Z,48.40
2018-05-14T12:30:18.596Z,47.20
2018-05-14T12:32:44.863Z,48.70
2018-05-14T12:35:11.126Z,48.50
2018-05-14T12:37:37.358Z,48.00
2018-05-14T12:40:04.323Z,46.80
2018-05-14T12:42:30.840Z,46.80
2018-05-14T12:44:58.045Z,48.40
2018-05-14T12:47:25.013Z,48.00
2018-05-14T12:49:52.025Z,48.90
2018-05-14T12:52:18.432Z,48.90
2018-05-14T12:54:44.713Z,48.30
2018-05-14T12:57:10.942Z,47.60
2018-05-14T12:59:37.172Z,49.10
2018-05-14T13:02:03.437Z,49.10
2018-05-14T13:04:29.691Z,48.00
2018-05-14T13:06:55.934Z,48.10
2018-05-14T13:09:23.239Z,45.80
2018-05-14T13:11:49.526Z,45.60
2018-05-14T13:14:15.758Z,47.80
2018-05-14T13:16:42.750Z,46.60
2018-05-14T13:19:09.072Z,46.70
2018-05-14T13:21:35.296Z,45.90
2018-05-14T13:24:01.513Z,46.30
2018-05-14T13:26:27.754Z,46.00
2018-05-14T13:28:54.020Z,47.20
2018-05-14T13:31:20.259Z,47.80
2018-05-14T13:33:46.506Z,47.30
2018-05-14T13:36:13.537Z,47.50
2018-05-14T13:38:39.778Z,47.50
2018-05-14T13:41:06.006Z,48.30
2018-05-14T13:43:32.223Z,49.00
2018-05-14T13:45:59.202Z,47.50
2018-05-14T13:48:25.521Z,47.40
2018-05-14T13:50:52.500Z,48.30
2018-05-14T13:53:18.705Z,48.30
2018-05-14T13:55:45.651Z,46.30
2018-05-14T13:58:11.908Z,46.30
2018-05-14T14:00:38.113Z,46.40
2018-05-14T14:03:04.383Z,45.80
2018-05-14T14:05:30.689Z,46.80
2018-05-14T14:07:57.412Z,46.50
2018-05-14T14:10:23.616Z,46.40
2018-05-14T14:12:50.577Z,45.80
2018-05-14T14:15:17.571Z,45.60
2018-05-14T14:17:43.810Z,45.60
2018-05-14T14:20:10.030Z,44.50
2018-05-14T14:22:36.289Z,43.80
2018-05-14T14:25:03.326Z,44.40
2018-05-14T14:27:30.305Z,44.00
2018-05-14T14:29:56.615Z,43.80
2018-05-14T14:32:24.254Z,43.90
2018-05-14T14:34:50.461Z,43.80
2018-05-14T14:37:16.765Z,44.60
2018-05-14T14:39:42.913Z,44.50
2018-05-14T14:42:09.211Z,43.40
2018-05-14T14:44:36.195Z,43.40
2018-05-14T14:47:02.480Z,43.40
2018-05-14T14:49:28.924Z,42.60
2018-05-14T14:51:55.159Z,43.60
2018-05-14T14:54:21.488Z,42.70
2018-05-14T14:56:47.744Z,41.60
2018-05-14T14:59:13.961Z,42.30
2018-05-14T15:01:40.277Z,41.30
2018-05-14T15:04:06.528Z,40.60
2018-05-14T15:06:32.762Z,39.60
2018-05-14T15:08:59.140Z,39.80
2018-05-14T15:11:25.418Z,40.80
2018-05-14T15:13:51.616Z,39.80
2018-05-14T15:16:18.032Z,39.70
2018-05-14T15:18:45.047Z,40.60
2018-05-14T15:21:11.392Z,40.00
2018-05-14T15:23:38.431Z,40.10
2018-05-14T15:26:05.412Z,39.70
2018-05-14T15:28:31.678Z,39.60
2018-05-14T15:30:57.923Z,39.70
2018-05-14T15:33:24.159Z,38.80
2018-05-14T15:35:50.398Z,37.90
2018-05-14T15:38:17.392Z,38.30
2018-05-14T15:40:43.665Z,38.20
2018-05-14T15:43:10.615Z,38.00
2018-05-14T15:45:37.594Z,38.10
2018-05-14T15:48:03.856Z,38.00
2018-05-14T15:50:30.063Z,38.40
2018-05-14T15:52:56.311Z,39.30
2018-05-14T15:55:22.531Z,39.20
2018-05-14T15:57:48.772Z,39.40
2018-05-14T16:00:15.792Z,38.90
2018-05-14T16:02:42.040Z,38.90
2018-05-14T16:05:08.259Z,39.30
2018-05-14T16:07:34.460Z,39.10
2018-05-14T16:10:00.722Z,38.80
2018-05-14T16:12:26.954Z,38.90
2018-05-14T16:14:53.204Z,39.30
2018-05-14T16:17:20.175Z,37.90
2018-05-14T16:19:46.454Z,37.90
2018-05-14T16:22:12.690Z,38.40
2018-05-14T16:24:38.925Z,38.60
2018-05-14T16:27:05.978Z,39.00
2018-05-14T16:29:32.999Z,37.10
2018-05-14T16:31:59.976Z,37.80
2018-05-14T16:34:26.941Z,37.90
2018-05-14T16:36:53.176Z,37.90
2018-05-14T16:39:19.397Z,38.20
2018-05-14T16:41:45.621Z,38.20
2018-05-14T16:44:11.938Z,38.20
2018-05-14T16:46:39.805Z,38.50
2018-05-14T16:49:06.777Z,38.50
2018-05-14T16:51:32.993Z,38.40
2018-05-14T16:53:59.301Z,38.50
2018-05-14T16:56:25.621Z,38.30
2018-05-14T16:58:51.909Z,38.20
2018-05-14T17:01:24.992Z,38.30
2018-05-14T17:03:51.266Z,38.70
2018-05-14T17:06:17.502Z,39.20
2018-05-14T17:08:44.518Z,39.00
2018-05-14T17:11:10.746Z,39.00
2018-05-14T17:13:38.542Z,39.40
2018-05-14T17:16:05.532Z,39.60
2018-05-14T17:18:33.340Z,40.10
2018-05-14T17:21:00.389Z,40.40
2018-05-14T17:23:26.699Z,40.40
2018-05-14T17:25:53.800Z,40.30
2018-05-14T17:28:20.000Z,40.30
2018-05-14T17:30:46.243Z,40.10
2018-05-14T17:33:13.249Z,40.80
2018-05-14T17:35:39.495Z,40.80
2018-05-14T17:38:05.947Z,39.70
2018-05-14T17:40:39.265Z,40.10
2018-05-14T17:43:05.540Z,39.80
2018-05-14T17:45:31.802Z,40.30
2018-05-14T17:47:58.049Z,40.40
2018-05-14T17:50:24.276Z,40.80
2018-05-14T17:52:50.550Z,41.70
2018-05-14T17:55:16.789Z,40.40
2018-05-14T17:57:43.059Z,41.70
2018-05-14T18:00:09.364Z,41.00
2018-05-14T18:02:36.474Z,43.20
2018-05-14T18:05:02.752Z,43.10
2018-05-14T18:07:29.714Z,42.60
2018-05-14T18:09:55.948Z,42.60
2018-05-14T18:12:22.171Z,42.80
2018-05-14T18:14:48.404Z,43.20
2018-05-14T18:17:14.725Z,43.70
2018-05-14T18:19:47.172Z,44.40
2018-05-14T18:22:21.145Z,45.30
2018-05-14T18:24:49.718Z,44.50
2018-05-14T18:27:22.288Z,44.50
2018-05-14T18:29:48.556Z,45.90
2018-05-14T18:32:16.585Z,48.10
2018-05-14T18:34:43.190Z,48.20
2018-05-14T18:37:10.146Z,47.40
2018-05-14T18:39:36.397Z,47.30
2018-05-14T18:42:02.689Z,49.20
2018-05-14T18:44:32.587Z,47.40
2018-05-14T18:46:58.881Z,47.40
2018-05-14T18:49:25.248Z,48.60
2018-05-14T18:51:51.510Z,48.00
2018-05-14T18:54:17.955Z,50.70
2018-05-14T18:56:44.308Z,48.30
2018-05-14T18:59:10.512Z,48.50
2018-05-14T19:01:36.862Z,51.10
2018-05-14T19:04:03.399Z,51.20
2018-05-14T19:06:29.638Z,52.00
2018-05-14T19:08:55.877Z,53.30
2018-05-14T19:11:28.125Z,52.50
2018-05-14T19:13:54.451Z,54.40
2018-05-14T19:16:26.880Z,53.90
2018-05-14T19:18:53.890Z,53.00
2018-05-14T19:21:20.302Z,52.60
2018-05-14T19:23:52.606Z,54.60
2018-05-14T19:26:19.718Z,55.20
2018-05-14T19:28:52.160Z,55.20
2018-05-14T19:31:18.523Z,53.20
2018-05-14T19:33:50.912Z,54.50
2018-05-14T19:36:17.136Z,53.50
2018-05-14T19:38:43.453Z,53.40
2018-05-14T19:41:09.692Z,54.00
2018-05-14T19:43:35.942Z,55.10
2018-05-14T19:46:02.924Z,56.70
2018-05-14T19:48:29.238Z,56.70
2018-05-14T19:50:55.592Z,56.10
2018-05-14T19:53:21.904Z,57.20
2018-05-14T19:55:48.173Z,57.80
2018-05-14T19:58:14.428Z,56.60
2018-05-14T20:00:40.891Z,56.80
2018-05-14T20:03:07.147Z,56.90
2018-05-14T20:05:33.513Z,58.10
2018-05-14T20:08:00.508Z,57.70
2018-05-14T20:10:26.848Z,57.70
2018-05-14T20:12:53.126Z,59.40
2018-05-14T20:15:19.332Z,58.70
2018-05-14T20:17:45.565Z,58.20
2018-05-14T20:20:11.862Z,58.40
2018-05-14T20:22:38.769Z,58.80
2018-05-14T20:25:05.072Z,58.80
2018-05-14T20:27:32.134Z,60.50
2018-05-14T20:29:58.448Z,60.20
2018-05-14T20:32:24.751Z,60.00
2018-05-14T20:34:51.381Z,60.80
2018-05-14T20:37:17.726Z,60.50
2018-05-14T20:39:43.990Z,62.00
2018-05-14T20:42:10.247Z,61.00
2018-05-14T20:44:36.526Z,61.40
2018-05-14T20:47:02.949Z,61.60
2018-05-14T20:49:29.402Z,62.20
2018-05-14T20:51:56.433Z,62.30
2018-05-14T20:54:22.636Z,62.30
2018-05-14T20:56:48.890Z,62.70
2018-05-14T20:59:15.115Z,63.50
2018-05-14T21:01:41.370Z,64.10
2018-05-14T21:04:07.655Z,63.60
2018-05-14T21:06:34.507Z,65.00
2018-05-14T21:09:00.716Z,64.90
2018-05-14T21:11:26.973Z,65.10
2018-05-14T21:13:53.179Z,65.50
2018-05-14T21:16:19.652Z,66.50
2018-05-14T21:18:46.650Z,66.90
2018-05-14T21:21:12.967Z,66.50
2018-05-14T21:23:40.277Z,67.10
2018-05-14T21:26:06.591Z,67.00
2018-05-14T21:28:32.960Z,67.40
2018-05-14T21:30:59.889Z,68.10
2018-05-14T21:33:26.897Z,68.00
2018-05-14T21:35:53.117Z,68.00
2018-05-14T21:38:19.537Z,68.70
2018-05-14T21:40:45.836Z,69.70
2018-05-14T21:43:12.328Z,69.10
2018-05-14T21:45:39.436Z,69.90
2018-05-14T21:48:05.670Z,69.80
2018-05-14T21:50:31.928Z,70.70
2018-05-14T21:52:58.151Z,69.80
2018-05-14T21:55:24.430Z,69.50
2018-05-14T21:57:51.565Z,70.70
2018-05-14T22:00:17.840Z,70.50
2018-05-14T22:02:46.500Z,70.80
2018-05-14T22:05:13.497Z,71.00
2018-05-14T22:07:39.723Z,71.00
2018-05-14T22:10:05.963Z,71.00
2018-05-14T22:12:32.185Z,71.40
2018-05-14T22:14:58.421Z,71.50
2018-05-14T22:17:24.776Z,71.30
2018-05-14T22:19:51.745Z,72.10
2018-05-14T22:22:18.045Z,72.10
2018-05-14T22:24:45.032Z,72.00
2018-05-14T22:27:11.290Z,72.00
2018-05-14T22:29:37.545Z,72.60
2018-05-14T22:32:04.512Z,73.00
2018-05-14T22:34:30.782Z,73.00
2018-05-14T22:36:57.013Z,72.80
2018-05-14T22:39:23.296Z,73.10
2018-05-14T22:41:49.522Z,73.50
2018-05-14T22:44:16.513Z,74.60
2018-05-14T22:46:42.777Z,74.40
2018-05-14T22:49:09.003Z,74.60
2018-05-14T22:51:36.000Z,74.90
2018-05-14T22:54:02.252Z,74.80
2018-05-14T22:56:28.491Z,75.60
2018-05-14T22:58:54.756Z,75.70
2018-05-14T23:01:21.732Z,76.50
2018-05-14T23:03:47.946Z,76.40
2018-05-14T23:06:14.163Z,76.70
2018-05-14T23:08:40.414Z,77.00
2018-05-14T23:11:06.637Z,76.40
2018-05-14T23:13:32.895Z,76.50
2018-05-14T23:15:59.114Z,76.60
2018-05-14T23:18:25.375Z,76.80
2018-05-14T23:20:51.636Z,77.10
2018-05-14T23:23:17.860Z,77.20
2018-05-14T23:25:44.069Z,77.50
2018-05-14T23:28:11.783Z,78.50
2018-05-14T23:30:38.396Z,78.50
2018-05-14T23:33:04.653Z,78.70
2018-05-14T23:35:30.948Z,79.50
2018-05-14T23:37:57.191Z,79.60
2018-05-14T23:40:23.384Z,78.90
2018-05-14T23:42:50.353Z,80.00
2018-05-14T23:45:16.560Z,79.90
2018-05-14T23:47:42.824Z,79.70
2018-05-14T23:50:09.076Z,80.40
2018-05-14T23:52:35.359Z,81.10
2018-05-14T23:55:01.647Z,81.30
2018-05-14T23:57:27.900Z,81.30
2018-05-14T23:59:54.163Z,81.00
